sensor_id;sensor_type;location;lat;lon;timestamp;P1;durP1;ratioP1;P2;durP2;ratioP2
35961;SDS011;22044;48.298;10.008;2022-11-20T00:01:49;6.77;;;4.77;;
35961;SDS011;22044;48.298;10.008;2022-11-20T00:04:34;5.77;;;4.77;;
35961;SDS011;22044;48.298;10.008;2022-11-20T00:07:21;6.97;;;5.20;;
35961;SDS011;22044;48.298;10.008;2022-11-20T00:10:07;7.07;;;4.90;;
35961;SDS011;22044;48.298;10.008;2022-11-20T00:12:53;9.27;;;5.37;;
35961;SDS011;22044;48.298;10.008;2022-11-20T00:15:38;5.87;;;5.00;;
35961;SDS011;22044;48.298;10.008;2022-11-20T00:18:24;6.37;;;4.83;;
35961;SDS011;22044;48.298;10.008;2022-11-20T00:21:11;7.03;;;5.50;;
35961;SDS011;22044;48.298;10.008;2022-11-20T00:23:59;7.23;;;5.00;;
35961;SDS011;22044;48.298;10.008;2022-11-20T00:26:45;6.30;;;4.83;;
35961;SDS011;22044;48.298;10.008;2022-11-20T00:29:31;6.30;;;5.37;;
35961;SDS011;22044;48.298;10.008;2022-11-20T00:32:16;5.70;;;5.10;;
35961;SDS011;22044;48.298;10.008;2022-11-20T00:35:02;5.03;;;4.53;;
35961;SDS011;22044;48.298;10.008;2022-11-20T00:37:47;7.13;;;5.20;;
35961;SDS011;22044;48.298;10.008;2022-11-20T00:40:34;5.77;;;4.73;;
35961;SDS011;22044;48.298;10.008;2022-11-20T00:43:20;6.80;;;5.07;;
35961;SDS011;22044;48.298;10.008;2022-11-20T00:46:06;5.77;;;4.37;;
35961;SDS011;22044;48.298;10.008;2022-11-20T00:48:53;6.07;;;4.93;;
35961;SDS011;22044;48.298;10.008;2022-11-20T00:51:39;5.50;;;4.73;;
35961;SDS011;22044;48.298;10.008;2022-11-20T00:54:25;7.00;;;4.87;;
35961;SDS011;22044;48.298;10.008;2022-11-20T00:57:12;7.63;;;4.87;;
35961;SDS011;22044;48.298;10.008;2022-11-20T00:59:57;6.37;;;4.53;;
35961;SDS011;22044;48.298;10.008;2022-11-20T01:02:43;6.27;;;4.70;;
35961;SDS011;22044;48.298;10.008;2022-11-20T01:05:28;6.93;;;5.17;;
35961;SDS011;22044;48.298;10.008;2022-11-20T01:08:18;6.83;;;4.67;;
35961;SDS011;22044;48.298;10.008;2022-11-20T01:11:05;5.73;;;4.53;;
35961;SDS011;22044;48.298;10.008;2022-11-20T01:13:54;5.73;;;4.60;;
35961;SDS011;22044;48.298;10.008;2022-11-20T01:16:42;6.33;;;5.33;;
35961;SDS011;22044;48.298;10.008;2022-11-20T01:19:29;6.77;;;4.40;;
35961;SDS011;22044;48.298;10.008;2022-11-20T01:22:15;6.03;;;4.80;;
35961;SDS011;22044;48.298;10.008;2022-11-20T01:25:00;5.10;;;4.40;;
35961;SDS011;22044;48.298;10.008;2022-11-20T01:27:46;5.87;;;4.67;;
35961;SDS011;22044;48.298;10.008;2022-11-20T01:30:33;5.67;;;4.60;;
35961;SDS011;22044;48.298;10.008;2022-11-20T01:33:18;5.77;;;4.17;;
35961;SDS011;22044;48.298;10.008;2022-11-20T01:36:04;5.93;;;4.60;;
35961;SDS011;22044;48.298;10.008;2022-11-20T01:38:51;6.90;;;4.90;;
35961;SDS011;22044;48.298;10.008;2022-11-20T01:41:37;5.70;;;4.33;;
35961;SDS011;22044;48.298;10.008;2022-11-20T01:44:52;5.63;;;4.50;;
35961;SDS011;22044;48.298;10.008;2022-11-20T01:47:40;6.63;;;4.73;;
35961;SDS011;22044;48.298;10.008;2022-11-20T01:50:29;8.57;;;5.03;;
35961;SDS011;22044;48.298;10.008;2022-11-20T01:53:17;5.10;;;4.37;;
35961;SDS011;22044;48.298;10.008;2022-11-20T01:56:07;7.93;;;4.77;;
35961;SDS011;22044;48.298;10.008;2022-11-20T01:58:57;13.13;;;4.60;;
35961;SDS011;22044;48.298;10.008;2022-11-20T02:01:45;6.00;;;4.67;;
35961;SDS011;22044;48.298;10.008;2022-11-20T02:04:33;7.57;;;4.43;;
35961;SDS011;22044;48.298;10.008;2022-11-20T02:07:18;6.60;;;4.83;;
35961;SDS011;22044;48.298;10.008;2022-11-20T02:10:06;6.07;;;4.50;;
35961;SDS011;22044;48.298;10.008;2022-11-20T02:12:52;4.93;;;4.30;;
35961;SDS011;22044;48.298;10.008;2022-11-20T02:15:55;7.63;;;5.67;;
35961;SDS011;22044;48.298;10.008;2022-11-20T02:18:42;7.80;;;5.00;;
35961;SDS011;22044;48.298;10.008;2022-11-20T02:21:33;5.40;;;4.87;;
35961;SDS011;22044;48.298;10.008;2022-11-20T02:24:25;6.17;;;4.93;;
35961;SDS011;22044;48.298;10.008;2022-11-20T02:27:11;5.73;;;4.60;;
35961;SDS011;22044;48.298;10.008;2022-11-20T02:29:59;8.40;;;5.37;;
35961;SDS011;22044;48.298;10.008;2022-11-20T02:32:47;8.13;;;5.20;;
35961;SDS011;22044;48.298;10.008;2022-11-20T02:35:40;7.27;;;4.90;;
35961;SDS011;22044;48.298;10.008;2022-11-20T02:38:27;6.97;;;5.10;;
35961;SDS011;22044;48.298;10.008;2022-11-20T02:41:14;5.47;;;4.63;;
35961;SDS011;22044;48.298;10.008;2022-11-20T02:44:00;5.40;;;4.90;;
35961;SDS011;22044;48.298;10.008;2022-11-20T02:46:45;5.10;;;4.60;;
35961;SDS011;22044;48.298;10.008;2022-11-20T02:49:31;6.57;;;4.73;;
35961;SDS011;22044;48.298;10.008;2022-11-20T02:52:17;5.67;;;5.00;;
35961;SDS011;22044;48.298;10.008;2022-11-20T02:55:03;5.27;;;4.43;;
35961;SDS011;22044;48.298;10.008;2022-11-20T02:57:51;5.47;;;4.60;;
35961;SDS011;22044;48.298;10.008;2022-11-20T03:00:36;5.97;;;4.77;;
35961;SDS011;22044;48.298;10.008;2022-11-20T03:03:22;5.50;;;4.93;;
35961;SDS011;22044;48.298;10.008;2022-11-20T03:06:07;7.27;;;4.97;;
35961;SDS011;22044;48.298;10.008;2022-11-20T03:08:53;6.53;;;4.93;;
35961;SDS011;22044;48.298;10.008;2022-11-20T03:11:38;5.80;;;4.23;;
35961;SDS011;22044;48.298;10.008;2022-11-20T03:14:25;5.93;;;4.40;;
35961;SDS011;22044;48.298;10.008;2022-11-20T03:17:11;8.03;;;4.77;;
35961;SDS011;22044;48.298;10.008;2022-11-20T03:19:57;6.53;;;4.67;;
35961;SDS011;22044;48.298;10.008;2022-11-20T03:22:42;5.30;;;4.80;;
35961;SDS011;22044;48.298;10.008;2022-11-20T03:25:28;5.10;;;4.20;;
35961;SDS011;22044;48.298;10.008;2022-11-20T03:28:13;4.93;;;4.43;;
35961;SDS011;22044;48.298;10.008;2022-11-20T03:31:05;5.80;;;4.70;;
35961;SDS011;22044;48.298;10.008;2022-11-20T03:33:55;5.07;;;4.57;;
35961;SDS011;22044;48.298;10.008;2022-11-20T03:36:42;5.90;;;4.87;;
35961;SDS011;22044;48.298;10.008;2022-11-20T03:39:28;5.03;;;4.53;;
35961;SDS011;22044;48.298;10.008;2022-11-20T03:42:14;5.57;;;4.60;;
35961;SDS011;22044;48.298;10.008;2022-11-20T03:45:13;7.20;;;5.43;;
35961;SDS011;22044;48.298;10.008;2022-11-20T03:48:01;6.63;;;4.97;;
35961;SDS011;22044;48.298;10.008;2022-11-20T03:50:46;6.50;;;5.20;;
35961;SDS011;22044;48.298;10.008;2022-11-20T03:53:32;6.20;;;5.10;;
35961;SDS011;22044;48.298;10.008;2022-11-20T03:56:19;8.40;;;5.10;;
35961;SDS011;22044;48.298;10.008;2022-11-20T03:59:09;6.67;;;5.07;;
35961;SDS011;22044;48.298;10.008;2022-11-20T04:01:55;6.30;;;5.27;;
35961;SDS011;22044;48.298;10.008;2022-11-20T04:04:42;7.70;;;5.87;;
35961;SDS011;22044;48.298;10.008;2022-11-20T04:07:28;8.27;;;6.20;;
35961;SDS011;22044;48.298;10.008;2022-11-20T04:10:13;8.03;;;5.90;;
35961;SDS011;22044;48.298;10.008;2022-11-20T04:12:59;7.67;;;6.33;;
35961;SDS011;22044;48.298;10.008;2022-11-20T04:15:45;10.40;;;7.03;;
35961;SDS011;22044;48.298;10.008;2022-11-20T04:18:30;9.13;;;6.87;;
35961;SDS011;22044;48.298;10.008;2022-11-20T04:21:17;8.93;;;7.20;;
35961;SDS011;22044;48.298;10.008;2022-11-20T04:24:03;8.63;;;7.13;;
35961;SDS011;22044;48.298;10.008;2022-11-20T04:26:49;8.77;;;7.07;;
35961;SDS011;22044;48.298;10.008;2022-11-20T04:29:35;7.20;;;6.33;;
35961;SDS011;22044;48.298;10.008;2022-11-20T04:32:21;9.57;;;7.40;;
35961;SDS011;22044;48.298;10.008;2022-11-20T04:35:07;9.00;;;7.43;;
35961;SDS011;22044;48.298;10.008;2022-11-20T04:37:53;9.17;;;7.33;;
35961;SDS011;22044;48.298;10.008;2022-11-20T04:40:39;8.70;;;7.70;;
35961;SDS011;22044;48.298;10.008;2022-11-20T04:43:25;9.73;;;7.40;;
35961;SDS011;22044;48.298;10.008;2022-11-20T04:46:10;11.13;;;7.97;;
35961;SDS011;22044;48.298;10.008;2022-11-20T04:48:56;9.27;;;7.90;;
35961;SDS011;22044;48.298;10.008;2022-11-20T04:51:42;13.17;;;8.40;;
35961;SDS011;22044;48.298;10.008;2022-11-20T04:54:29;10.97;;;8.53;;
35961;SDS011;22044;48.298;10.008;2022-11-20T04:57:14;9.67;;;7.73;;
35961;SDS011;22044;48.298;10.008;2022-11-20T05:00:00;9.40;;;8.30;;
35961;SDS011;22044;48.298;10.008;2022-11-20T05:02:45;10.97;;;9.13;;
35961;SDS011;22044;48.298;10.008;2022-11-20T05:05:31;12.23;;;9.13;;
35961;SDS011;22044;48.298;10.008;2022-11-20T05:08:18;9.70;;;8.20;;
35961;SDS011;22044;48.298;10.008;2022-11-20T05:11:05;11.13;;;9.37;;
35961;SDS011;22044;48.298;10.008;2022-11-20T05:13:52;10.97;;;8.70;;
35961;SDS011;22044;48.298;10.008;2022-11-20T05:16:38;10.13;;;9.03;;
35961;SDS011;22044;48.298;10.008;2022-11-20T05:19:24;9.93;;;8.80;;
35961;SDS011;22044;48.298;10.008;2022-11-20T05:22:09;9.57;;;8.17;;
35961;SDS011;22044;48.298;10.008;2022-11-20T05:24:55;9.30;;;8.27;;
35961;SDS011;22044;48.298;10.008;2022-11-20T05:27:42;10.87;;;8.73;;
35961;SDS011;22044;48.298;10.008;2022-11-20T05:30:28;11.20;;;8.50;;
35961;SDS011;22044;48.298;10.008;2022-11-20T05:33:14;10.20;;;8.33;;
35961;SDS011;22044;48.298;10.008;2022-11-20T05:35:59;10.00;;;8.90;;
35961;SDS011;22044;48.298;10.008;2022-11-20T05:38:45;10.87;;;8.57;;
35961;SDS011;22044;48.298;10.008;2022-11-20T05:41:32;10.20;;;8.87;;
35961;SDS011;22044;48.298;10.008;2022-11-20T05:44:19;10.90;;;8.40;;
35961;SDS011;22044;48.298;10.008;2022-11-20T05:47:05;9.40;;;8.20;;
35961;SDS011;22044;48.298;10.008;2022-11-20T05:49:50;9.80;;;8.27;;
35961;SDS011;22044;48.298;10.008;2022-11-20T05:52:36;8.93;;;8.00;;
35961;SDS011;22044;48.298;10.008;2022-11-20T05:55:21;10.80;;;8.83;;
35961;SDS011;22044;48.298;10.008;2022-11-20T05:58:07;8.80;;;7.80;;
35961;SDS011;22044;48.298;10.008;2022-11-20T06:00:54;10.90;;;8.53;;
35961;SDS011;22044;48.298;10.008;2022-11-20T06:03:40;10.03;;;8.37;;
35961;SDS011;22044;48.298;10.008;2022-11-20T06:06:29;10.77;;;8.50;;
35961;SDS011;22044;48.298;10.008;2022-11-20T06:09:15;11.83;;;8.83;;
35961;SDS011;22044;48.298;10.008;2022-11-20T06:12:00;10.03;;;8.57;;
35961;SDS011;22044;48.298;10.008;2022-11-20T06:14:46;10.37;;;8.47;;
35961;SDS011;22044;48.298;10.008;2022-11-20T06:17:33;10.00;;;7.83;;
35961;SDS011;22044;48.298;10.008;2022-11-20T06:20:18;10.57;;;8.20;;
35961;SDS011;22044;48.298;10.008;2022-11-20T06:23:04;11.97;;;8.53;;
35961;SDS011;22044;48.298;10.008;2022-11-20T06:25:49;8.57;;;7.50;;
35961;SDS011;22044;48.298;10.008;2022-11-20T06:28:35;10.03;;;7.93;;
35961;SDS011;22044;48.298;10.008;2022-11-20T06:31:23;8.33;;;7.07;;
35961;SDS011;22044;48.298;10.008;2022-11-20T06:34:11;8.33;;;7.10;;
35961;SDS011;22044;48.298;10.008;2022-11-20T06:36:57;10.87;;;7.60;;
35961;SDS011;22044;48.298;10.008;2022-11-20T06:39:43;9.30;;;6.83;;
35961;SDS011;22044;48.298;10.008;2022-11-20T06:42:28;7.83;;;7.00;;
35961;SDS011;22044;48.298;10.008;2022-11-20T06:45:14;8.43;;;6.90;;
35961;SDS011;22044;48.298;10.008;2022-11-20T06:47:59;7.70;;;6.90;;
35961;SDS011;22044;48.298;10.008;2022-11-20T06:50:46;9.63;;;6.93;;
35961;SDS011;22044;48.298;10.008;2022-11-20T06:53:32;9.60;;;7.07;;
35961;SDS011;22044;48.298;10.008;2022-11-20T06:56:18;9.80;;;7.27;;
35961;SDS011;22044;48.298;10.008;2022-11-20T06:59:04;7.27;;;6.40;;
35961;SDS011;22044;48.298;10.008;2022-11-20T07:01:51;8.77;;;6.83;;
35961;SDS011;22044;48.298;10.008;2022-11-20T07:04:36;7.83;;;6.10;;
35961;SDS011;22044;48.298;10.008;2022-11-20T07:07:23;6.73;;;6.03;;
35961;SDS011;22044;48.298;10.008;2022-11-20T07:10:09;9.50;;;6.60;;
35961;SDS011;22044;48.298;10.008;2022-11-20T07:12:55;8.80;;;7.47;;
35961;SDS011;22044;48.298;10.008;2022-11-20T07:15:41;7.00;;;6.27;;
35961;SDS011;22044;48.298;10.008;2022-11-20T07:18:26;8.27;;;6.93;;
35961;SDS011;22044;48.298;10.008;2022-11-20T07:21:12;8.83;;;7.10;;
35961;SDS011;22044;48.298;10.008;2022-11-20T07:23:59;8.43;;;6.97;;
35961;SDS011;22044;48.298;10.008;2022-11-20T07:26:45;8.70;;;6.30;;
35961;SDS011;22044;48.298;10.008;2022-11-20T07:29:32;7.57;;;6.03;;
35961;SDS011;22044;48.298;10.008;2022-11-20T07:32:17;8.87;;;6.07;;
35961;SDS011;22044;48.298;10.008;2022-11-20T07:35:03;7.90;;;6.53;;
35961;SDS011;22044;48.298;10.008;2022-11-20T07:37:49;7.00;;;5.83;;
35961;SDS011;22044;48.298;10.008;2022-11-20T07:40:36;8.37;;;7.03;;
35961;SDS011;22044;48.298;10.008;2022-11-20T07:43:22;7.50;;;6.10;;
35961;SDS011;22044;48.298;10.008;2022-11-20T07:46:07;8.93;;;6.03;;
35961;SDS011;22044;48.298;10.008;2022-11-20T07:48:54;7.27;;;5.97;;
35961;SDS011;22044;48.298;10.008;2022-11-20T07:51:39;8.90;;;6.63;;
35961;SDS011;22044;48.298;10.008;2022-11-20T07:54:25;6.10;;;5.50;;
35961;SDS011;22044;48.298;10.008;2022-11-20T07:57:12;7.20;;;5.53;;
35961;SDS011;22044;48.298;10.008;2022-11-20T07:59:58;7.23;;;6.13;;
35961;SDS011;22044;48.298;10.008;2022-11-20T08:02:43;6.73;;;5.70;;
35961;SDS011;22044;48.298;10.008;2022-11-20T08:05:29;10.07;;;6.27;;
35961;SDS011;22044;48.298;10.008;2022-11-20T08:08:14;6.57;;;5.87;;
35961;SDS011;22044;48.298;10.008;2022-11-20T08:11:00;6.70;;;5.17;;
35961;SDS011;22044;48.298;10.008;2022-11-20T08:14:01;5.90;;;5.00;;
35961;SDS011;22044;48.298;10.008;2022-11-20T08:16:59;6.30;;;5.23;;
35961;SDS011;22044;48.298;10.008;2022-11-20T08:19:45;5.50;;;4.90;;
35961;SDS011;22044;48.298;10.008;2022-11-20T08:22:31;5.97;;;5.20;;
35961;SDS011;22044;48.298;10.008;2022-11-20T08:25:16;6.77;;;5.27;;
35961;SDS011;22044;48.298;10.008;2022-11-20T08:28:02;6.87;;;4.97;;
35961;SDS011;22044;48.298;10.008;2022-11-20T08:30:51;7.13;;;5.37;;
35961;SDS011;22044;48.298;10.008;2022-11-20T08:33:42;7.97;;;4.77;;
35961;SDS011;22044;48.298;10.008;2022-11-20T08:36:28;6.93;;;4.90;;
35961;SDS011;22044;48.298;10.008;2022-11-20T08:39:13;6.27;;;4.97;;
35961;SDS011;22044;48.298;10.008;2022-11-20T08:41:59;9.13;;;6.60;;
35961;SDS011;22044;48.298;10.008;2022-11-20T08:44:45;5.57;;;4.90;;
35961;SDS011;22044;48.298;10.008;2022-11-20T08:47:32;6.63;;;4.67;;
35961;SDS011;22044;48.298;10.008;2022-11-20T08:50:18;7.10;;;4.87;;
35961;SDS011;22044;48.298;10.008;2022-11-20T08:53:04;7.97;;;4.97;;
35961;SDS011;22044;48.298;10.008;2022-11-20T08:55:50;6.73;;;4.67;;
35961;SDS011;22044;48.298;10.008;2022-11-20T08:58:36;6.10;;;4.33;;
35961;SDS011;22044;48.298;10.008;2022-11-20T09:01:22;8.37;;;5.00;;
35961;SDS011;22044;48.298;10.008;2022-11-20T09:04:10;6.23;;;4.80;;
35961;SDS011;22044;48.298;10.008;2022-11-20T09:06:59;6.03;;;4.33;;
35961;SDS011;22044;48.298;10.008;2022-11-20T09:09:45;4.57;;;4.13;;
35961;SDS011;22044;48.298;10.008;2022-11-20T09:12:31;10.10;;;4.83;;
35961;SDS011;22044;48.298;10.008;2022-11-20T09:15:16;4.27;;;3.10;;
35961;SDS011;22044;48.298;10.008;2022-11-20T09:18:02;4.77;;;4.00;;
35961;SDS011;22044;48.298;10.008;2022-11-20T09:20:50;4.03;;;2.93;;
35961;SDS011;22044;48.298;10.008;2022-11-20T09:23:36;3.50;;;3.20;;
35961;SDS011;22044;48.298;10.008;2022-11-20T09:26:22;9.23;;;5.90;;
35961;SDS011;22044;48.298;10.008;2022-11-20T09:29:08;6.03;;;4.13;;
35961;SDS011;22044;48.298;10.008;2022-11-20T09:31:54;6.97;;;5.57;;
35961;SDS011;22044;48.298;10.008;2022-11-20T09:34:40;5.13;;;3.83;;
35961;SDS011;22044;48.298;10.008;2022-11-20T09:37:27;4.70;;;4.20;;
35961;SDS011;22044;48.298;10.008;2022-11-20T09:40:17;5.00;;;4.50;;
35961;SDS011;22044;48.298;10.008;2022-11-20T09:43:07;6.10;;;4.27;;
35961;SDS011;22044;48.298;10.008;2022-11-20T09:46:01;3.87;;;3.50;;
35961;SDS011;22044;48.298;10.008;2022-11-20T09:48:55;3.30;;;3.00;;
35961;SDS011;22044;48.298;10.008;2022-11-20T09:51:53;4.43;;;3.07;;
35961;SDS011;22044;48.298;10.008;2022-11-20T09:54:44;2.93;;;2.63;;
35961;SDS011;22044;48.298;10.008;2022-11-20T09:57:35;2.87;;;2.67;;
35961;SDS011;22044;48.298;10.008;2022-11-20T10:00:22;4.77;;;2.90;;
35961;SDS011;22044;48.298;10.008;2022-11-20T10:03:11;3.50;;;2.90;;
35961;SDS011;22044;48.298;10.008;2022-11-20T10:06:01;3.07;;;2.73;;
35961;SDS011;22044;48.298;10.008;2022-11-20T10:08:49;2.80;;;2.33;;
35961;SDS011;22044;48.298;10.008;2022-11-20T10:11:46;2.80;;;2.20;;
35961;SDS011;22044;48.298;10.008;2022-11-20T10:14:39;4.43;;;2.73;;
35961;SDS011;22044;48.298;10.008;2022-11-20T10:17:41;3.30;;;2.80;;
35961;SDS011;22044;48.298;10.008;2022-11-20T10:20:42;2.67;;;2.30;;
35961;SDS011;22044;48.298;10.008;2022-11-20T10:23:36;2.97;;;2.50;;
35961;SDS011;22044;48.298;10.008;2022-11-20T10:26:44;2.80;;;2.50;;
35961;SDS011;22044;48.298;10.008;2022-11-20T10:29:41;5.37;;;3.90;;
35961;SDS011;22044;48.298;10.008;2022-11-20T10:32:32;2.13;;;1.90;;
35961;SDS011;22044;48.298;10.008;2022-11-20T10:35:24;5.40;;;3.83;;
35961;SDS011;22044;48.298;10.008;2022-11-20T10:38:14;2.13;;;1.80;;
35961;SDS011;22044;48.298;10.008;2022-11-20T10:41:05;2.93;;;2.70;;
35961;SDS011;22044;48.298;10.008;2022-11-20T10:44:12;4.87;;;3.60;;
35961;SDS011;22044;48.298;10.008;2022-11-20T10:47:21;6.60;;;3.60;;
35961;SDS011;22044;48.298;10.008;2022-11-20T10:50:08;3.43;;;3.03;;
35961;SDS011;22044;48.298;10.008;2022-11-20T10:53:01;2.13;;;1.93;;
35961;SDS011;22044;48.298;10.008;2022-11-20T10:55:54;3.07;;;1.70;;
35961;SDS011;22044;48.298;10.008;2022-11-20T10:58:45;2.80;;;1.90;;
35961;SDS011;22044;48.298;10.008;2022-11-20T11:01:41;2.07;;;1.87;;
35961;SDS011;22044;48.298;10.008;2022-11-20T11:04:30;3.03;;;2.20;;
35961;SDS011;22044;48.298;10.008;2022-11-20T11:07:22;3.30;;;2.97;;
35961;SDS011;22044;48.298;10.008;2022-11-20T11:10:14;3.33;;;1.93;;
35961;SDS011;22044;48.298;10.008;2022-11-20T11:13:02;2.00;;;1.80;;
35961;SDS011;22044;48.298;10.008;2022-11-20T11:15:48;2.53;;;2.33;;
35961;SDS011;22044;48.298;10.008;2022-11-20T11:18:36;2.30;;;2.10;;
35961;SDS011;22044;48.298;10.008;2022-11-20T11:21:21;2.30;;;2.07;;
35961;SDS011;22044;48.298;10.008;2022-11-20T11:24:14;1.93;;;1.77;;
35961;SDS011;22044;48.298;10.008;2022-11-20T11:27:10;3.07;;;1.90;;
35961;SDS011;22044;48.298;10.008;2022-11-20T11:30:02;2.70;;;2.20;;
35961;SDS011;22044;48.298;10.008;2022-11-20T11:33:04;3.10;;;2.20;;
35961;SDS011;22044;48.298;10.008;2022-11-20T11:35:52;3.07;;;2.63;;
35961;SDS011;22044;48.298;10.008;2022-11-20T11:38:41;2.30;;;2.10;;
35961;SDS011;22044;48.298;10.008;2022-11-20T11:41:28;2.70;;;2.20;;
35961;SDS011;22044;48.298;10.008;2022-11-20T11:44:19;2.60;;;2.40;;
35961;SDS011;22044;48.298;10.008;2022-11-20T11:47:25;3.27;;;2.90;;
35961;SDS011;22044;48.298;10.008;2022-11-20T11:50:16;2.40;;;2.20;;
35961;SDS011;22044;48.298;10.008;2022-11-20T11:53:07;4.70;;;3.53;;
35961;SDS011;22044;48.298;10.008;2022-11-20T11:55:58;2.80;;;2.13;;
35961;SDS011;22044;48.298;10.008;2022-11-20T11:58:50;3.57;;;2.60;;
35961;SDS011;22044;48.298;10.008;2022-11-20T12:01:41;2.47;;;1.97;;
35961;SDS011;22044;48.298;10.008;2022-11-20T12:04:37;3.23;;;2.03;;
35961;SDS011;22044;48.298;10.008;2022-11-20T12:07:32;3.20;;;2.50;;
35961;SDS011;22044;48.298;10.008;2022-11-20T12:10:28;2.87;;;2.00;;
35961;SDS011;22044;48.298;10.008;2022-11-20T12:13:30;2.40;;;2.20;;
35961;SDS011;22044;48.298;10.008;2022-11-20T12:16:25;2.23;;;2.03;;
35961;SDS011;22044;48.298;10.008;2022-11-20T12:19:11;2.83;;;1.90;;
35961;SDS011;22044;48.298;10.008;2022-11-20T12:22:00;2.63;;;1.83;;
35961;SDS011;22044;48.298;10.008;2022-11-20T12:24:52;2.53;;;1.93;;
35961;SDS011;22044;48.298;10.008;2022-11-20T12:31:00;1.93;;;1.80;;
35961;SDS011;22044;48.298;10.008;2022-11-20T12:34:05;2.53;;;1.80;;
35961;SDS011;22044;48.298;10.008;2022-11-20T12:37:10;3.57;;;1.80;;
35961;SDS011;22044;48.298;10.008;2022-11-20T12:40:15;1.97;;;1.77;;
35961;SDS011;22044;48.298;10.008;2022-11-20T12:43:14;2.60;;;1.80;;
35961;SDS011;22044;48.298;10.008;2022-11-20T12:46:25;3.00;;;1.80;;
35961;SDS011;22044;48.298;10.008;2022-11-20T12:49:24;4.00;;;1.90;;
35961;SDS011;22044;48.298;10.008;2022-11-20T12:52:31;2.70;;;2.20;;
35961;SDS011;22044;48.298;10.008;2022-11-20T12:55:25;3.10;;;1.90;;
35961;SDS011;22044;48.298;10.008;2022-11-20T12:58:20;2.00;;;1.80;;
35961;SDS011;22044;48.298;10.008;2022-11-20T13:01:16;3.20;;;2.10;;
35961;SDS011;22044;48.298;10.008;2022-11-20T13:07:47;2.07;;;1.60;;
35961;SDS011;22044;48.298;10.008;2022-11-20T13:10:37;3.50;;;1.70;;
35961;SDS011;22044;48.298;10.008;2022-11-20T13:13:32;1.97;;;1.77;;
35961;SDS011;22044;48.298;10.008;2022-11-20T13:16:30;1.70;;;1.60;;
35961;SDS011;22044;48.298;10.008;2022-11-20T13:19:23;2.30;;;1.67;;
35961;SDS011;22044;48.298;10.008;2022-11-20T13:22:10;2.63;;;1.70;;
35961;SDS011;22044;48.298;10.008;2022-11-20T13:24:56;3.07;;;2.20;;
35961;SDS011;22044;48.298;10.008;2022-11-20T13:27:46;2.13;;;1.90;;
35961;SDS011;22044;48.298;10.008;2022-11-20T13:30:34;1.60;;;1.50;;
35961;SDS011;22044;48.298;10.008;2022-11-20T13:33:23;2.03;;;1.60;;
35961;SDS011;22044;48.298;10.008;2022-11-20T13:36:20;1.47;;;1.20;;
35961;SDS011;22044;48.298;10.008;2022-11-20T13:39:08;2.27;;;1.80;;
35961;SDS011;22044;48.298;10.008;2022-11-20T13:41:54;3.60;;;2.90;;
35961;SDS011;22044;48.298;10.008;2022-11-20T13:44:42;2.03;;;1.80;;
35961;SDS011;22044;48.298;10.008;2022-11-20T13:47:31;1.80;;;1.43;;
35961;SDS011;22044;48.298;10.008;2022-11-20T13:50:16;2.50;;;2.13;;
35961;SDS011;22044;48.298;10.008;2022-11-20T13:53:04;2.77;;;1.70;;
35961;SDS011;22044;48.298;10.008;2022-11-20T13:55:59;2.00;;;1.50;;
35961;SDS011;22044;48.298;10.008;2022-11-20T13:58:51;1.67;;;1.23;;
35961;SDS011;22044;48.298;10.008;2022-11-20T14:01:44;1.43;;;1.10;;
35961;SDS011;22044;48.298;10.008;2022-11-20T14:04:33;2.43;;;1.17;;
35961;SDS011;22044;48.298;10.008;2022-11-20T14:07:24;1.10;;;0.90;;
35961;SDS011;22044;48.298;10.008;2022-11-20T14:10:19;1.20;;;1.10;;
35961;SDS011;22044;48.298;10.008;2022-11-20T14:13:10;1.87;;;1.47;;
35961;SDS011;22044;48.298;10.008;2022-11-20T14:16:00;2.30;;;1.63;;
35961;SDS011;22044;48.298;10.008;2022-11-20T14:18:46;3.07;;;1.57;;
35961;SDS011;22044;48.298;10.008;2022-11-20T14:21:33;1.63;;;1.50;;
35961;SDS011;22044;48.298;10.008;2022-11-20T14:24:19;2.87;;;1.93;;
35961;SDS011;22044;48.298;10.008;2022-11-20T14:27:11;3.03;;;1.67;;
35961;SDS011;22044;48.298;10.008;2022-11-20T14:30:00;2.37;;;1.83;;
35961;SDS011;22044;48.298;10.008;2022-11-20T14:32:46;1.70;;;1.60;;
35961;SDS011;22044;48.298;10.008;2022-11-20T14:35:34;1.43;;;1.33;;
35961;SDS011;22044;48.298;10.008;2022-11-20T14:38:23;2.47;;;1.60;;
35961;SDS011;22044;48.298;10.008;2022-11-20T14:41:16;1.60;;;1.50;;
35961;SDS011;22044;48.298;10.008;2022-11-20T14:44:02;1.57;;;1.20;;
35961;SDS011;22044;48.298;10.008;2022-11-20T14:46:50;3.47;;;1.80;;
35961;SDS011;22044;48.298;10.008;2022-11-20T14:49:36;2.10;;;1.50;;
35961;SDS011;22044;48.298;10.008;2022-11-20T14:52:22;2.70;;;1.40;;
35961;SDS011;22044;48.298;10.008;2022-11-20T14:55:14;3.30;;;2.10;;
35961;SDS011;22044;48.298;10.008;2022-11-20T14:58:20;1.70;;;1.60;;
35961;SDS011;22044;48.298;10.008;2022-11-20T15:01:07;1.50;;;1.40;;
35961;SDS011;22044;48.298;10.008;2022-11-20T15:03:59;3.83;;;1.63;;
35961;SDS011;22044;48.298;10.008;2022-11-20T15:06:49;2.10;;;1.13;;
35961;SDS011;22044;48.298;10.008;2022-11-20T15:09:35;3.30;;;1.57;;
35961;SDS011;22044;48.298;10.008;2022-11-20T15:12:23;2.27;;;1.77;;
35961;SDS011;22044;48.298;10.008;2022-11-20T15:15:09;3.23;;;1.50;;
35961;SDS011;22044;48.298;10.008;2022-11-20T15:17:56;1.47;;;1.20;;
35961;SDS011;22044;48.298;10.008;2022-11-20T15:20:42;1.27;;;1.17;;
35961;SDS011;22044;48.298;10.008;2022-11-20T15:23:29;1.30;;;1.20;;
35961;SDS011;22044;48.298;10.008;2022-11-20T15:26:15;2.47;;;1.20;;
35961;SDS011;22044;48.298;10.008;2022-11-20T15:29:08;1.10;;;1.00;;
35961;SDS011;22044;48.298;10.008;2022-11-20T15:31:55;1.57;;;0.90;;
35961;SDS011;22044;48.298;10.008;2022-11-20T15:34:40;1.50;;;0.83;;
35961;SDS011;22044;48.298;10.008;2022-11-20T15:37:26;1.30;;;1.00;;
35961;SDS011;22044;48.298;10.008;2022-11-20T15:40:12;1.00;;;0.90;;
35961;SDS011;22044;48.298;10.008;2022-11-20T15:42:57;1.10;;;0.93;;
35961;SDS011;22044;48.298;10.008;2022-11-20T15:45:50;1.27;;;1.00;;
35961;SDS011;22044;48.298;10.008;2022-11-20T15:48:39;1.03;;;1.00;;
35961;SDS011;22044;48.298;10.008;2022-11-20T15:51:28;0.97;;;0.90;;
35961;SDS011;22044;48.298;10.008;2022-11-20T15:54:16;1.30;;;1.00;;
35961;SDS011;22044;48.298;10.008;2022-11-20T15:57:03;1.40;;;1.07;;
35961;SDS011;22044;48.298;10.008;2022-11-20T15:59:49;2.30;;;1.23;;
35961;SDS011;22044;48.298;10.008;2022-11-20T16:02:36;1.23;;;1.13;;
35961;SDS011;22044;48.298;10.008;2022-11-20T16:05:22;2.00;;;1.50;;
35961;SDS011;22044;48.298;10.008;2022-11-20T16:08:07;1.93;;;1.43;;
35961;SDS011;22044;48.298;10.008;2022-11-20T16:10:53;2.50;;;1.80;;
35961;SDS011;22044;48.298;10.008;2022-11-20T16:13:39;2.23;;;1.60;;
35961;SDS011;22044;48.298;10.008;2022-11-20T16:16:42;1.73;;;1.63;;
35961;SDS011;22044;48.298;10.008;2022-11-20T16:19:29;2.17;;;1.77;;
35961;SDS011;22044;48.298;10.008;2022-11-20T16:22:15;3.73;;;2.10;;
35961;SDS011;22044;48.298;10.008;2022-11-20T16:25:00;1.67;;;1.50;;
35961;SDS011;22044;48.298;10.008;2022-11-20T16:27:46;1.97;;;1.70;;
35961;SDS011;22044;48.298;10.008;2022-11-20T16:30:31;2.30;;;1.90;;
35961;SDS011;22044;48.298;10.008;2022-11-20T16:33:17;2.63;;;2.43;;
35961;SDS011;22044;48.298;10.008;2022-11-20T16:36:07;4.03;;;2.90;;
35961;SDS011;22044;48.298;10.008;2022-11-20T16:38:54;6.93;;;6.23;;
35961;SDS011;22044;48.298;10.008;2022-11-20T16:41:40;7.03;;;5.77;;
35961;SDS011;22044;48.298;10.008;2022-11-20T16:44:26;5.93;;;3.30;;
35961;SDS011;22044;48.298;10.008;2022-11-20T16:47:11;3.10;;;2.80;;